createdAt,value
2022-07-30T00:02:50.945Z,70.28
2022-07-30T00:07:53.329Z,70.10
2022-07-30T00:12:55.709Z,69.64
2022-07-30T00:17:58.148Z,70.16
2022-07-30T00:23:04.601Z,69.60
2022-07-30T00:28:07.190Z,69.46
2022-07-30T00:33:09.523Z,69.96
2022-07-30T00:38:11.866Z,70.49
2022-07-30T00:43:18.436Z,70.04
2022-07-30T00:48:20.719Z,70.48
2022-07-30T00:53:23.116Z,70.44
2022-07-30T00:58:25.467Z,70.53
2022-07-30T01:03:27.734Z,70.35
2022-07-30T01:08:30.193Z,70.24
2022-07-30T01:13:32.708Z,70.41
2022-07-30T01:18:54.476Z,70.67
2022-07-30T01:24:02.819Z,70.56
2022-07-30T01:29:08.886Z,71.11
2022-07-30T01:34:15.296Z,71.07
2022-07-30T01:39:20.713Z,71.15
2022-07-30T01:44:26.331Z,70.29
2022-07-30T01:49:30.310Z,71.01
2022-07-30T01:54:35.238Z,71.31
2022-07-30T01:59:40.765Z,71.46
2022-07-30T02:04:43.239Z,71.63
2022-07-30T02:10:15.155Z,71.90
2022-07-30T02:15:33.452Z,70.97
2022-07-30T02:20:36.019Z,71.57
2022-07-30T02:25:49.677Z,71.84
2022-07-30T02:30:55.251Z,71.40
2022-07-30T02:35:59.660Z,71.96
2022-07-30T02:41:04.774Z,71.63
2022-07-30T02:46:08.862Z,72.16
2022-07-30T02:51:31.063Z,72.20
2022-07-30T02:56:36.567Z,71.70
2022-07-30T03:01:39.228Z,71.53
2022-07-30T03:06:43.726Z,71.72
2022-07-30T03:11:47.810Z,70.97
2022-07-30T03:16:56.380Z,70.87
2022-07-30T03:22:01.118Z,70.99
2022-07-30T03:27:04.979Z,70.40
2022-07-30T03:32:07.431Z,70.20
2022-07-30T03:37:10.335Z,69.59
2022-07-30T03:42:15.358Z,68.45
2022-07-30T03:47:19.224Z,68.47
2022-07-30T03:52:24.031Z,68.86
2022-07-30T03:57:26.984Z,69.01
2022-07-30T04:02:29.187Z,68.53
2022-07-30T04:07:50.355Z,67.73
2022-07-30T04:12:56.930Z,67.65
2022-07-30T04:18:04.896Z,67.63
2022-07-30T04:23:08.058Z,67.64
2022-07-30T04:28:12.133Z,67.28
2022-07-30T04:33:14.434Z,67.36
2022-07-30T04:38:16.816Z,67.08
2022-07-30T04:43:23.261Z,66.87
2022-07-30T04:48:27.194Z,66.61
2022-07-30T04:53:30.339Z,66.70
2022-07-30T04:58:37.196Z,66.51
2022-07-30T05:03:40.653Z,66.62
2022-07-30T05:08:43.199Z,66.58
2022-07-30T05:13:51.236Z,66.35
2022-07-30T05:18:57.364Z,66.70
2022-07-30T05:23:59.730Z,65.98
2022-07-30T05:29:20.065Z,66.64
2022-07-30T05:34:34.526Z,66.83
2022-07-30T05:39:37.010Z,66.52
2022-07-30T05:45:17.587Z,66.67
2022-07-30T05:50:20.098Z,66.97
2022-07-30T05:55:22.364Z,66.76
2022-07-30T06:00:32.755Z,67.10
2022-07-30T06:05:35.795Z,67.20
2022-07-30T06:10:38.088Z,67.14
2022-07-30T06:15:40.767Z,67.38
2022-07-30T06:20:43.123Z,67.04
2022-07-30T06:25:54.844Z,67.07
2022-07-30T06:30:57.689Z,66.99
2022-07-30T06:36:02.805Z,66.88
2022-07-30T06:41:13.515Z,66.31
2022-07-30T06:46:29.236Z,66.51
2022-07-30T06:51:31.653Z,66.44
2022-07-30T06:56:33.981Z,67.07
2022-07-30T07:01:39.943Z,66.50
2022-07-30T07:06:42.447Z,66.55
2022-07-30T07:11:46.536Z,66.61
2022-07-30T07:16:53.371Z,67.03
2022-07-30T07:22:14.156Z,67.02
2022-07-30T07:27:19.983Z,66.88
2022-07-30T07:32:24.950Z,66.56
2022-07-30T07:37:27.485Z,66.76
2022-07-30T07:42:30.735Z,67.04
2022-07-30T07:47:44.209Z,67.20
2022-07-30T07:53:14.351Z,67.53
2022-07-30T07:58:19.357Z,67.49
2022-07-30T08:03:30.008Z,67.50
2022-07-30T08:08:36.803Z,67.31
2022-07-30T08:14:04.907Z,67.67
2022-07-30T08:19:30.267Z,67.56
2022-07-30T08:25:01.721Z,67.74
2022-07-30T08:30:08.569Z,67.64
2022-07-30T08:35:10.931Z,67.38
2022-07-30T08:40:13.257Z,67.71
2022-07-30T08:45:34.903Z,67.81
2022-07-30T08:51:07.458Z,67.90
2022-07-30T08:56:09.838Z,67.71
2022-07-30T09:01:12.423Z,67.77
2022-07-30T09:06:15.913Z,67.87
2022-07-30T09:11:18.367Z,67.98
2022-07-30T09:16:25.756Z,67.78
2022-07-30T09:21:31.883Z,67.72
2022-07-30T09:27:00.257Z,67.73
2022-07-30T09:32:55.078Z,67.79
2022-07-30T09:38:15.260Z,68.05
2022-07-30T09:43:52.214Z,68.09
2022-07-30T09:49:26.674Z,68.04
2022-07-30T09:54:51.798Z,68.16
2022-07-30T09:59:59.831Z,67.98
2022-07-30T10:05:28.608Z,67.60
2022-07-30T10:10:32.013Z,67.97
2022-07-30T10:15:36.701Z,67.92
2022-07-30T10:20:40.859Z,67.66
2022-07-30T10:25:55.134Z,68.18
2022-07-30T10:31:46.792Z,67.40
2022-07-30T10:36:58.772Z,67.60
2022-07-30T10:42:12.884Z,67.62
2022-07-30T10:47:19.152Z,67.04
2022-07-30T10:52:44.983Z,67.22
2022-07-30T10:58:17.850Z,67.48
2022-07-30T11:03:41.423Z,67.42
2022-07-30T11:08:48.717Z,67.76
2022-07-30T11:13:59.443Z,67.50
2022-07-30T11:24:47.199Z,67.61
2022-07-30T11:29:51.633Z,67.35
2022-07-30T11:35:25.649Z,67.44
2022-07-30T11:40:58.536Z,67.28
2022-07-30T11:46:10.155Z,67.41
2022-07-30T11:51:13.000Z,67.37
2022-07-30T11:56:16.744Z,67.21
2022-07-30T12:01:19.763Z,67.49
2022-07-30T12:06:22.286Z,67.41
2022-07-30T12:11:25.229Z,67.59
2022-07-30T12:16:28.934Z,67.27
2022-07-30T12:21:31.843Z,67.14
2022-07-30T12:26:35.279Z,67.20
2022-07-30T12:31:38.444Z,67.30
2022-07-30T12:36:42.488Z,67.15
2022-07-30T12:41:50.621Z,67.39
2022-07-30T12:46:52.971Z,67.51
2022-07-30T12:52:00.015Z,67.41
2022-07-30T12:57:06.463Z,67.72
2022-07-30T13:02:09.364Z,67.38
2022-07-30T13:07:12.896Z,67.58
2022-07-30T13:12:15.610Z,67.31
2022-07-30T13:17:19.047Z,67.59
2022-07-30T13:22:21.449Z,67.72
2022-07-30T13:27:23.763Z,67.70
2022-07-30T13:32:26.065Z,67.57
2022-07-30T13:37:37.651Z,67.49
2022-07-30T13:42:40.938Z,67.47
2022-07-30T13:47:43.763Z,67.11
2022-07-30T13:52:46.492Z,67.13
2022-07-30T13:57:48.828Z,67.03
2022-07-30T14:02:51.668Z,67.22
2022-07-30T14:07:54.019Z,67.30
2022-07-30T14:12:56.909Z,67.00
2022-07-30T14:18:00.093Z,67.10
2022-07-30T14:23:02.537Z,67.28
2022-07-30T14:28:05.373Z,66.96
2022-07-30T14:33:07.863Z,66.91
2022-07-30T14:38:10.224Z,66.76
2022-07-30T14:43:14.644Z,66.79
2022-07-30T14:48:17.852Z,66.66
2022-07-30T14:53:22.336Z,66.64
2022-07-30T14:58:25.143Z,66.14
2022-07-30T15:03:27.419Z,66.30
2022-07-30T15:08:30.171Z,66.45
2022-07-30T15:13:32.556Z,65.69
2022-07-30T15:18:34.967Z,66.46
2022-07-30T15:23:37.328Z,66.42
2022-07-30T15:28:39.634Z,66.46
2022-07-30T15:33:43.530Z,66.38
2022-07-30T15:38:46.212Z,66.90
2022-07-30T15:43:48.455Z,66.53
2022-07-30T15:48:50.914Z,66.66
2022-07-30T15:53:53.291Z,66.19
2022-07-30T15:58:55.906Z,66.67
2022-07-30T16:03:58.251Z,66.60
2022-07-30T16:09:00.603Z,66.18
2022-07-30T16:14:03.117Z,66.63
2022-07-30T16:19:05.518Z,66.24
2022-07-30T16:24:08.041Z,66.04
2022-07-30T16:29:13.671Z,66.09
2022-07-30T16:34:17.802Z,65.74
2022-07-30T16:39:28.873Z,65.87
2022-07-30T16:44:34.317Z,65.87
2022-07-30T16:49:36.755Z,65.86
2022-07-30T16:54:39.040Z,65.43
2022-07-30T16:59:42.297Z,64.85
2022-07-30T17:04:46.246Z,64.28
2022-07-30T17:09:51.828Z,64.98
2022-07-30T17:14:54.508Z,64.58
2022-07-30T17:19:56.904Z,64.07
2022-07-30T17:25:00.012Z,63.80
2022-07-30T17:30:02.221Z,64.39
2022-07-30T17:35:05.134Z,64.08
2022-07-30T17:40:29.007Z,64.07
2022-07-30T17:45:31.262Z,63.82
2022-07-30T17:50:34.852Z,64.09
2022-07-30T17:55:37.212Z,64.08
2022-07-30T18:00:39.527Z,63.85
2022-07-30T18:05:41.851Z,63.96
2022-07-30T18:10:44.120Z,64.45
2022-07-30T18:15:46.463Z,64.53
2022-07-30T18:20:48.727Z,64.30
2022-07-30T18:25:53.277Z,63.93
2022-07-30T18:30:56.818Z,63.98
2022-07-30T18:35:59.253Z,64.06
2022-07-30T18:41:03.166Z,63.95
2022-07-30T18:46:06.188Z,64.25
2022-07-30T18:51:13.871Z,64.43
2022-07-30T18:56:16.534Z,64.05
2022-07-30T19:01:19.003Z,63.42
2022-07-30T19:06:21.421Z,63.19
2022-07-30T19:11:24.184Z,63.33
2022-07-30T19:16:26.585Z,63.19
2022-07-30T19:21:28.773Z,62.71
2022-07-30T19:26:31.179Z,63.32
2022-07-30T19:31:34.314Z,63.55
2022-07-30T19:36:36.983Z,63.11
2022-07-30T19:41:42.205Z,63.17
2022-07-30T19:46:44.929Z,63.59
2022-07-30T19:52:10.432Z,63.20
2022-07-30T19:57:09.428Z,62.90
2022-07-30T20:02:13.556Z,62.97
2022-07-30T20:07:15.848Z,62.92
2022-07-30T20:12:17.991Z,62.83
2022-07-30T20:17:20.064Z,62.83
2022-07-30T20:22:22.366Z,63.03
2022-07-30T20:27:36.598Z,63.90
2022-07-30T20:32:44.805Z,64.22
2022-07-30T20:37:55.426Z,63.93
2022-07-30T20:42:59.920Z,63.91
2022-07-30T20:48:02.809Z,64.74
2022-07-30T20:53:04.907Z,64.22
2022-07-30T20:58:16.589Z,63.68
2022-07-30T21:03:21.477Z,63.86
2022-07-30T21:08:25.545Z,64.04
2022-07-30T21:13:28.419Z,64.08
2022-07-30T21:18:34.727Z,63.87
2022-07-30T21:23:36.867Z,63.70
2022-07-30T21:28:39.060Z,62.75
2022-07-30T21:33:42.767Z,61.88
2022-07-30T21:38:45.079Z,61.71
2022-07-30T21:43:49.278Z,62.04
2022-07-30T21:48:56.512Z,61.99
2022-07-30T21:54:00.404Z,62.15
2022-07-30T21:59:02.907Z,62.41
2022-07-30T22:04:07.869Z,62.01
2022-07-30T22:09:26.296Z,62.33
2022-07-30T22:14:35.587Z,62.25
2022-07-30T22:19:37.869Z,62.60
2022-07-30T22:24:40.138Z,62.97
2022-07-30T22:29:43.562Z,63.21
2022-07-30T22:34:46.809Z,62.96
2022-07-30T22:39:51.775Z,63.19
2022-07-30T22:44:55.465Z,62.75
2022-07-30T22:49:58.032Z,62.30
2022-07-30T22:55:08.955Z,62.33
2022-07-30T23:06:03.955Z,62.19
2022-07-30T23:11:06.328Z,62.52
2022-07-30T23:16:08.745Z,62.77
2022-07-30T23:21:11.046Z,62.52
2022-07-30T23:26:13.517Z,62.34
2022-07-30T23:31:15.595Z,62.06
2022-07-30T23:36:17.930Z,61.70
2022-07-30T23:41:30.035Z,62.18
2022-07-30T23:46:32.920Z,61.77
2022-07-30T23:51:35.055Z,62.26
2022-07-30T23:56:37.151Z,63.09
